createdAt,value
2023-04-17T00:02:10.916Z,11.92
2023-04-17T00:04:41.209Z,11.97
2023-04-17T00:07:09.682Z,11.90
2023-04-17T00:09:37.151Z,12.03
2023-04-17T00:12:04.992Z,11.89
2023-04-17T00:14:32.335Z,11.98
2023-04-17T00:16:59.643Z,12.08
2023-04-17T00:19:27.450Z,11.88
2023-04-17T00:21:54.773Z,11.87
2023-04-17T00:24:21.999Z,11.90
2023-04-17T00:26:49.740Z,12.00
2023-04-17T00:29:17.122Z,11.64
2023-04-17T00:31:44.656Z,11.75
2023-04-17T00:34:12.311Z,11.82
2023-04-17T00:36:39.664Z,11.78
2023-04-17T00:39:07.041Z,11.78
2023-04-17T00:41:34.804Z,11.75
2023-04-17T00:44:02.239Z,11.67
2023-04-17T00:46:29.880Z,11.76
2023-04-17T00:48:57.615Z,11.81
2023-04-17T00:51:25.265Z,11.66
2023-04-17T00:53:52.843Z,11.79
2023-04-17T00:56:21.196Z,11.74
2023-04-17T00:58:49.283Z,11.62
2023-04-17T01:01:16.666Z,11.67
2023-04-17T01:03:44.817Z,11.73
2023-04-17T01:06:12.841Z,11.67
2023-04-17T01:08:44.063Z,11.43
2023-04-17T01:11:11.852Z,11.52
2023-04-17T01:13:49.439Z,11.63
2023-04-17T01:16:18.549Z,11.45
2023-04-17T01:18:48.479Z,11.57
2023-04-17T01:21:16.953Z,11.32
2023-04-17T01:23:46.563Z,11.30
2023-04-17T01:26:18.361Z,11.37
2023-04-17T01:28:57.686Z,11.46
2023-04-17T01:31:25.384Z,11.39
2023-04-17T01:33:53.365Z,10.97
2023-04-17T01:36:20.890Z,10.88
2023-04-17T01:38:48.213Z,10.70
2023-04-17T01:41:15.901Z,10.97
2023-04-17T01:43:45.136Z,11.01
2023-04-17T01:46:12.595Z,11.16
2023-04-17T01:48:40.830Z,10.98
2023-04-17T01:51:08.976Z,11.12
2023-04-17T01:53:36.830Z,11.22
2023-04-17T01:56:04.812Z,10.86
2023-04-17T01:58:32.288Z,10.75
2023-04-17T02:00:59.878Z,10.66
2023-04-17T02:03:28.060Z,10.63
2023-04-17T02:05:55.790Z,10.47
2023-04-17T02:08:23.324Z,10.64
2023-04-17T02:10:51.141Z,10.63
2023-04-17T02:13:18.453Z,10.63
2023-04-17T02:15:46.021Z,10.69
2023-04-17T02:18:14.491Z,10.83
2023-04-17T02:20:42.254Z,11.00
2023-04-17T02:23:09.734Z,11.03
2023-04-17T02:25:37.048Z,11.01
2023-04-17T02:28:05.336Z,10.72
2023-04-17T02:30:34.466Z,10.84
2023-04-17T02:33:02.142Z,10.68
2023-04-17T02:35:32.542Z,10.67
2023-04-17T02:38:00.111Z,10.67
2023-04-17T02:40:27.689Z,10.69
2023-04-17T02:43:04.021Z,10.59
2023-04-17T02:45:31.497Z,10.57
2023-04-17T02:48:01.376Z,10.56
2023-04-17T02:50:29.149Z,10.40
2023-04-17T02:52:57.534Z,10.45
2023-04-17T02:55:25.325Z,10.29
2023-04-17T02:57:53.168Z,10.12
2023-04-17T03:00:20.989Z,10.08
2023-04-17T03:02:49.185Z,10.06
2023-04-17T03:05:16.765Z,9.98
2023-04-17T03:07:44.091Z,9.89
2023-04-17T03:10:13.625Z,10.00
2023-04-17T03:12:40.986Z,9.87
2023-04-17T03:15:09.213Z,9.98
2023-04-17T03:17:36.971Z,10.10
2023-04-17T03:20:05.381Z,10.07
2023-04-17T03:22:32.707Z,10.16
2023-04-17T03:25:00.681Z,10.21
2023-04-17T03:27:32.013Z,10.45
2023-04-17T03:29:59.757Z,10.57
2023-04-17T03:32:27.837Z,10.51
2023-04-17T03:34:55.298Z,10.52
2023-04-17T03:37:23.286Z,10.68
2023-04-17T03:39:51.629Z,10.28
2023-04-17T03:42:25.778Z,10.46
2023-04-17T03:44:53.971Z,10.58
2023-04-17T03:47:21.505Z,10.50
2023-04-17T03:49:48.912Z,10.35
2023-04-17T03:52:16.976Z,10.36
2023-04-17T03:54:44.566Z,10.12
2023-04-17T03:57:12.586Z,10.08
2023-04-17T03:59:40.459Z,10.19
2023-04-17T04:02:10.570Z,10.18
2023-04-17T04:04:38.290Z,10.23
2023-04-17T04:07:06.177Z,10.39
2023-04-17T04:09:34.163Z,10.44
2023-04-17T04:12:22.219Z,10.45
2023-04-17T04:14:50.318Z,10.47
2023-04-17T04:17:27.443Z,10.43
2023-04-17T04:19:59.976Z,10.49
2023-04-17T04:22:39.455Z,10.37
2023-04-17T04:25:13.018Z,10.44
2023-04-17T04:27:51.144Z,10.50
2023-04-17T04:30:31.601Z,10.44
2023-04-17T04:33:06.403Z,10.43
2023-04-17T04:35:34.600Z,10.34
2023-04-17T04:38:03.411Z,10.48
2023-04-17T04:40:37.662Z,10.40
2023-04-17T04:43:07.023Z,10.20
2023-04-17T04:45:47.728Z,10.37
2023-04-17T04:48:18.063Z,10.27
2023-04-17T04:50:54.846Z,10.26
2023-04-17T04:53:40.398Z,10.37
2023-04-17T04:56:12.638Z,10.42
2023-04-17T04:58:53.447Z,10.62
2023-04-17T05:01:35.097Z,10.60
2023-04-17T05:04:07.505Z,10.51
2023-04-17T05:06:35.308Z,10.30
2023-04-17T05:09:11.998Z,10.24
2023-04-17T05:12:00.512Z,10.25
2023-04-17T05:14:35.272Z,10.28
2023-04-17T05:17:05.439Z,10.29
2023-04-17T05:19:37.374Z,10.18
2023-04-17T05:22:06.239Z,10.21
2023-04-17T05:24:50.134Z,10.15
2023-04-17T05:27:23.507Z,10.41
2023-04-17T05:29:51.251Z,10.08
2023-04-17T05:32:20.517Z,10.30
2023-04-17T05:34:49.202Z,10.06
2023-04-17T05:37:17.784Z,10.18
2023-04-17T05:39:45.137Z,10.04
2023-04-17T05:42:12.535Z,10.13
2023-04-17T05:44:40.591Z,9.82
2023-04-17T05:47:08.038Z,9.96
2023-04-17T05:49:37.021Z,10.18
2023-04-17T05:52:05.170Z,10.15
2023-04-17T05:54:48.505Z,10.12
2023-04-17T05:57:20.196Z,10.14
2023-04-17T05:59:53.024Z,10.15
2023-04-17T06:02:27.704Z,10.39
2023-04-17T06:04:59.127Z,10.19
2023-04-17T06:07:42.659Z,10.29
2023-04-17T06:10:12.134Z,10.12
2023-04-17T06:12:43.087Z,9.97
2023-04-17T06:15:19.673Z,10.21
2023-04-17T06:17:47.726Z,10.23
2023-04-17T06:20:20.327Z,10.28
2023-04-17T06:22:47.794Z,10.18
2023-04-17T06:25:34.358Z,10.15
2023-04-17T06:28:02.168Z,10.40
2023-04-17T06:30:29.855Z,10.43
2023-04-17T06:33:16.062Z,10.45
2023-04-17T06:35:45.336Z,10.51
2023-04-17T06:38:13.332Z,10.44
2023-04-17T06:40:46.146Z,10.53
2023-04-17T06:43:18.278Z,10.54
2023-04-17T06:45:54.289Z,10.63
2023-04-17T06:48:29.508Z,10.40
2023-04-17T06:51:00.440Z,10.44
2023-04-17T06:53:30.934Z,10.55
2023-04-17T06:56:11.176Z,10.88
2023-04-17T06:58:44.659Z,10.74
2023-04-17T07:01:15.697Z,11.03
2023-04-17T07:03:46.576Z,10.89
2023-04-17T07:06:14.103Z,11.00
2023-04-17T07:08:43.586Z,10.86
2023-04-17T07:11:11.304Z,10.97
2023-04-17T07:13:38.814Z,11.15
2023-04-17T07:16:06.676Z,11.37
2023-04-17T07:18:34.672Z,11.38
2023-04-17T07:21:06.230Z,11.35
2023-04-17T07:23:40.619Z,11.29
2023-04-17T07:26:38.697Z,11.12
2023-04-17T07:28:57.107Z,11.19
2023-04-17T07:31:26.652Z,11.28
2023-04-17T07:34:00.985Z,11.04
2023-04-17T07:36:32.377Z,11.13
2023-04-17T07:39:10.757Z,11.23
2023-04-17T07:41:40.326Z,11.17
2023-04-17T07:44:09.415Z,11.25
2023-04-17T07:46:42.650Z,11.27
2023-04-17T07:49:13.340Z,11.43
2023-04-17T07:51:49.046Z,11.51
2023-04-17T07:54:22.945Z,11.58
2023-04-17T07:56:50.863Z,11.49
2023-04-17T07:59:24.991Z,11.48
2023-04-17T08:02:03.485Z,11.32
2023-04-17T08:04:33.988Z,11.19
2023-04-17T08:07:07.010Z,11.03
2023-04-17T08:09:51.183Z,11.13
2023-04-17T08:12:23.261Z,11.17
2023-04-17T08:14:53.685Z,10.95
2023-04-17T08:17:34.755Z,11.15
2023-04-17T08:20:11.819Z,11.25
2023-04-17T08:22:41.968Z,11.26
2023-04-17T08:25:18.727Z,11.25
2023-04-17T08:27:49.673Z,11.12
2023-04-17T08:30:33.482Z,11.04
2023-04-17T08:33:02.972Z,11.35
2023-04-17T08:35:30.958Z,11.46
2023-04-17T08:38:01.118Z,11.45
2023-04-17T08:40:28.910Z,11.57
2023-04-17T08:42:56.613Z,11.91
2023-04-17T08:45:24.891Z,11.93
2023-04-17T08:47:52.307Z,12.22
2023-04-17T08:50:22.272Z,12.29
2023-04-17T08:52:51.516Z,12.07
2023-04-17T08:55:20.018Z,12.20
2023-04-17T08:57:55.966Z,12.28
2023-04-17T09:00:28.446Z,12.04
2023-04-17T09:02:59.041Z,11.87
2023-04-17T09:05:30.610Z,11.64
2023-04-17T09:08:13.466Z,11.69
2023-04-17T09:10:45.890Z,11.50
2023-04-17T09:13:15.907Z,11.31
2023-04-17T09:15:44.990Z,11.30
2023-04-17T09:18:25.447Z,11.26
2023-04-17T09:20:53.272Z,11.37
2023-04-17T09:23:23.004Z,11.18
2023-04-17T09:26:16.670Z,11.32
2023-04-17T09:29:14.247Z,11.40
2023-04-17T09:32:14.800Z,11.44
2023-04-17T09:34:47.652Z,11.54
2023-04-17T09:37:17.324Z,11.70
2023-04-17T09:40:02.485Z,11.86
2023-04-17T09:42:36.541Z,11.84
2023-04-17T09:45:21.196Z,12.07
2023-04-17T09:47:49.547Z,12.24
2023-04-17T09:50:28.730Z,12.61
2023-04-17T09:52:56.900Z,12.64
2023-04-17T09:55:39.898Z,12.55
2023-04-17T09:58:12.731Z,12.56
2023-04-17T10:00:42.071Z,12.49
2023-04-17T10:03:12.401Z,12.20
2023-04-17T10:05:40.072Z,12.05
2023-04-17T10:08:25.151Z,12.29
2023-04-17T10:11:02.146Z,12.40
2023-04-17T10:13:41.184Z,12.37
2023-04-17T10:16:21.373Z,12.41
2023-04-17T10:19:34.016Z,12.40
2023-04-17T10:22:20.140Z,12.61
2023-04-17T10:24:52.220Z,12.64
2023-04-17T10:27:29.664Z,13.06
2023-04-17T10:30:02.893Z,13.47
2023-04-17T10:32:32.823Z,13.09
2023-04-17T10:35:19.681Z,13.04
2023-04-17T10:37:53.779Z,12.97
2023-04-17T10:40:25.035Z,13.18
2023-04-17T10:43:02.421Z,13.25
2023-04-17T10:45:56.805Z,13.38
2023-04-17T10:48:38.809Z,13.77
2023-04-17T10:51:27.190Z,13.53
2023-04-17T10:53:59.535Z,13.22
2023-04-17T10:59:15.237Z,13.07
2023-04-17T11:01:52.892Z,12.73
2023-04-17T11:04:35.757Z,12.92
2023-04-17T11:07:04.112Z,12.91
2023-04-17T11:09:32.089Z,12.86
2023-04-17T11:12:05.934Z,13.05
2023-04-17T11:14:41.130Z,13.52
2023-04-17T11:17:15.811Z,13.63
2023-04-17T11:19:45.256Z,13.49
2023-04-17T11:22:19.375Z,13.63
2023-04-17T11:24:56.320Z,13.52
2023-04-17T11:27:23.805Z,13.54
2023-04-17T11:29:58.014Z,13.18
2023-04-17T11:32:39.638Z,12.87
2023-04-17T11:35:11.951Z,13.14
2023-04-17T11:38:05.812Z,13.29
2023-04-17T11:40:34.819Z,13.22
2023-04-17T11:43:08.780Z,13.44
2023-04-17T11:45:37.425Z,13.69
2023-04-17T11:48:05.200Z,13.44
2023-04-17T11:50:33.358Z,13.53
2023-04-17T11:53:03.632Z,13.88
2023-04-17T11:55:31.975Z,13.48
2023-04-17T11:58:19.933Z,13.18
2023-04-17T12:01:05.729Z,13.46
2023-04-17T12:03:58.488Z,13.46
2023-04-17T12:06:46.236Z,13.63
2023-04-17T12:09:26.840Z,13.53
2023-04-17T12:11:54.429Z,13.57
2023-04-17T12:14:26.416Z,13.59
2023-04-17T12:16:57.325Z,13.35
2023-04-17T12:19:27.051Z,13.21
2023-04-17T12:21:54.737Z,13.10
2023-04-17T12:24:25.366Z,13.19
2023-04-17T12:26:53.560Z,13.26
2023-04-17T12:29:29.566Z,13.48
2023-04-17T12:32:04.693Z,13.44
2023-04-17T12:34:32.051Z,13.35
2023-04-17T12:36:59.370Z,13.43
2023-04-17T12:39:27.137Z,13.20
2023-04-17T12:41:54.509Z,13.41
2023-04-17T12:44:21.835Z,13.54
2023-04-17T12:46:49.550Z,13.62
2023-04-17T12:49:16.955Z,13.86
2023-04-17T12:51:44.351Z,14.07
2023-04-17T12:54:12.352Z,14.23
2023-04-17T12:56:39.911Z,14.46
2023-04-17T12:59:07.307Z,14.32
2023-04-17T13:01:35.031Z,14.41
2023-04-17T13:04:02.786Z,14.51
2023-04-17T13:06:30.500Z,14.62
2023-04-17T13:08:59.196Z,14.31
2023-04-17T13:11:26.677Z,14.08
2023-04-17T13:13:53.982Z,14.24
2023-04-17T13:16:21.843Z,14.42
2023-04-17T13:18:49.314Z,14.14
2023-04-17T13:21:16.657Z,14.17
2023-04-17T13:23:44.400Z,14.08
2023-04-17T13:26:11.712Z,13.80
2023-04-17T13:28:40.012Z,13.98
2023-04-17T13:31:07.822Z,14.29
2023-04-17T13:33:35.250Z,14.44
2023-04-17T13:36:02.701Z,14.13
2023-04-17T13:38:30.633Z,14.30
2023-04-17T13:40:57.947Z,14.30
2023-04-17T13:43:25.359Z,13.98
2023-04-17T13:45:55.553Z,13.82
2023-04-17T13:48:23.087Z,13.69
2023-04-17T13:50:50.419Z,13.62
2023-04-17T13:53:18.105Z,13.67
2023-04-17T13:55:45.579Z,13.67
2023-04-17T13:58:12.909Z,13.64
2023-04-17T14:00:40.819Z,13.54
2023-04-17T14:03:08.683Z,13.66
2023-04-17T14:05:36.078Z,13.89
2023-04-17T14:08:03.430Z,13.86
2023-04-17T14:10:31.042Z,14.32
2023-04-17T14:12:58.365Z,14.50
2023-04-17T14:15:25.819Z,14.71
2023-04-17T14:17:54.030Z,14.49
2023-04-17T14:20:21.366Z,14.24
2023-04-17T14:22:48.742Z,14.71
2023-04-17T14:25:16.705Z,15.17
2023-04-17T14:27:44.624Z,15.47
2023-04-17T14:30:12.270Z,15.28
2023-04-17T14:32:40.090Z,15.58
2023-04-17T14:35:07.793Z,15.43
2023-04-17T14:37:35.153Z,15.08
2023-04-17T14:40:04.862Z,14.72
2023-04-17T14:42:38.089Z,14.35
2023-04-17T14:45:15.019Z,14.37
2023-04-17T14:47:44.192Z,14.51
2023-04-17T14:50:11.908Z,14.47
2023-04-17T14:52:39.533Z,14.35
2023-04-17T14:55:07.351Z,14.23
2023-04-17T14:57:34.871Z,14.07
2023-04-17T15:00:03.213Z,13.75
2023-04-17T15:02:38.476Z,13.57
2023-04-17T15:05:07.257Z,13.48
2023-04-17T15:07:35.526Z,13.54
2023-04-17T15:10:02.992Z,13.69
2023-04-17T15:12:30.840Z,13.53
2023-04-17T15:14:58.327Z,13.62
2023-04-17T15:17:25.716Z,13.40
2023-04-17T15:19:56.018Z,13.66
2023-04-17T15:22:23.860Z,13.49
2023-04-17T15:24:51.423Z,13.40
2023-04-17T15:27:20.277Z,13.30
2023-04-17T15:29:47.685Z,13.35
2023-04-17T15:32:15.280Z,13.56
2023-04-17T15:34:43.592Z,13.53
2023-04-17T15:37:12.088Z,13.52
2023-04-17T15:39:40.147Z,13.71
2023-04-17T15:42:09.684Z,13.42
2023-04-17T15:44:37.865Z,13.12
2023-04-17T15:47:06.107Z,13.12
2023-04-17T15:49:34.040Z,13.34
2023-04-17T15:52:01.394Z,13.06
2023-04-17T15:54:28.874Z,12.97
2023-04-17T15:56:57.149Z,12.88
2023-04-17T15:59:24.620Z,12.81
2023-04-17T16:01:53.425Z,12.96
2023-04-17T16:04:21.383Z,12.93
2023-04-17T16:06:48.978Z,12.84
2023-04-17T16:09:20.115Z,12.85
2023-04-17T16:11:48.676Z,12.76
2023-04-17T16:14:16.344Z,12.53
2023-04-17T16:16:43.779Z,12.41
2023-04-17T16:19:11.731Z,12.39
2023-04-17T16:21:39.345Z,12.16
2023-04-17T16:24:06.781Z,12.05
2023-04-17T16:26:34.520Z,11.86
2023-04-17T16:29:01.889Z,11.84
2023-04-17T16:31:29.264Z,11.73
2023-04-17T16:33:57.015Z,11.56
2023-04-17T16:36:25.013Z,11.37
2023-04-17T16:38:52.311Z,11.23
2023-04-17T16:41:20.707Z,11.19
2023-04-17T16:43:48.038Z,11.13
2023-04-17T16:46:23.788Z,11.00
2023-04-17T16:48:59.483Z,10.90
2023-04-17T16:51:27.187Z,10.79
2023-04-17T16:53:54.680Z,10.91
2023-04-17T16:56:22.456Z,10.67
2023-04-17T16:58:49.727Z,10.68
2023-04-17T17:01:17.173Z,10.66
2023-04-17T17:03:58.381Z,10.39
2023-04-17T17:06:30.810Z,10.59
2023-04-17T17:09:00.171Z,10.46
2023-04-17T17:11:27.700Z,10.50
2023-04-17T17:13:54.984Z,10.47
2023-04-17T17:16:28.897Z,10.69
2023-04-17T17:18:58.381Z,10.38
2023-04-17T17:21:33.939Z,10.33
2023-04-17T17:24:01.419Z,10.30
2023-04-17T17:26:58.064Z,10.24
2023-04-17T17:29:25.397Z,10.46
2023-04-17T17:31:53.027Z,10.33
2023-04-17T17:34:26.739Z,10.44
2023-04-17T17:36:55.087Z,10.45
2023-04-17T17:39:22.540Z,10.48
2023-04-17T17:41:50.035Z,10.61
2023-04-17T17:44:17.820Z,10.52
2023-04-17T17:46:45.175Z,10.59
2023-04-17T17:49:12.445Z,10.72
2023-04-17T17:51:40.186Z,10.57
2023-04-17T17:54:08.130Z,10.61
2023-04-17T17:56:35.573Z,10.38
2023-04-17T17:59:03.323Z,10.43
2023-04-17T18:01:31.165Z,10.46
2023-04-17T18:03:59.123Z,10.53
2023-04-17T18:06:26.885Z,10.42
2023-04-17T18:08:54.487Z,10.52
2023-04-17T18:11:23.211Z,10.66
2023-04-17T18:13:51.390Z,10.73
2023-04-17T18:16:18.791Z,10.80
2023-04-17T18:18:46.624Z,10.93
2023-04-17T18:21:14.042Z,10.99
2023-04-17T18:23:41.767Z,11.06
2023-04-17T18:26:10.066Z,10.77
2023-04-17T18:28:37.567Z,10.72
2023-04-17T18:31:05.099Z,10.95
2023-04-17T18:33:32.833Z,10.88
2023-04-17T18:36:00.434Z,11.08
2023-04-17T18:38:27.853Z,10.98
2023-04-17T18:40:57.580Z,11.07
2023-04-17T18:43:28.566Z,10.99
2023-04-17T18:45:56.747Z,10.97
2023-04-17T18:48:24.643Z,10.98
2023-04-17T18:50:52.275Z,10.94
2023-04-17T18:53:20.001Z,11.04
2023-04-17T18:55:47.455Z,10.92
2023-04-17T18:58:14.805Z,10.72
2023-04-17T19:00:42.587Z,10.57
2023-04-17T19:03:10.374Z,10.60
2023-04-17T19:05:38.017Z,10.61
2023-04-17T19:08:05.891Z,10.58
2023-04-17T19:10:33.288Z,10.66
2023-04-17T19:13:00.668Z,10.67
2023-04-17T19:15:28.343Z,10.68
2023-04-17T19:17:56.224Z,10.73
2023-04-17T19:20:23.845Z,10.94
2023-04-17T19:22:51.566Z,10.85
2023-04-17T19:25:18.991Z,10.98
2023-04-17T19:27:46.699Z,10.94
2023-04-17T19:30:14.499Z,11.06
2023-04-17T19:32:41.830Z,10.97
2023-04-17T19:35:09.846Z,10.94
2023-04-17T19:37:37.591Z,11.10
2023-04-17T19:40:14.286Z,11.06
2023-04-17T19:42:49.659Z,11.08
2023-04-17T19:45:17.566Z,10.93
2023-04-17T19:47:44.942Z,11.02
2023-04-17T19:50:12.894Z,11.16
2023-04-17T19:52:40.284Z,11.19
2023-04-17T19:55:09.389Z,11.18
2023-04-17T19:57:37.246Z,11.34
2023-04-17T20:00:06.236Z,11.41
2023-04-17T20:02:39.890Z,11.47
2023-04-17T20:05:08.657Z,11.45
2023-04-17T20:07:36.300Z,11.37
2023-04-17T20:10:03.941Z,11.32
2023-04-17T20:12:32.647Z,11.45
2023-04-17T20:15:00.020Z,11.44
2023-04-17T20:17:27.391Z,11.41
2023-04-17T20:19:55.180Z,11.18
2023-04-17T20:22:23.862Z,11.15
2023-04-17T20:24:51.220Z,11.21
2023-04-17T20:27:19.153Z,11.16
2023-04-17T20:29:46.519Z,11.27
2023-04-17T20:32:13.964Z,11.27
2023-04-17T20:34:41.747Z,11.37
2023-04-17T20:37:09.717Z,11.40
2023-04-17T20:39:37.088Z,11.28
2023-04-17T20:42:04.970Z,11.32
2023-04-17T20:44:32.903Z,10.96
2023-04-17T20:47:00.400Z,10.88
2023-04-17T20:49:28.252Z,11.22
2023-04-17T20:51:55.816Z,11.26
2023-04-17T20:54:23.467Z,11.18
2023-04-17T20:56:51.289Z,11.20
2023-04-17T20:59:18.713Z,11.12
2023-04-17T21:01:46.089Z,11.02
2023-04-17T21:04:14.076Z,11.01
2023-04-17T21:06:41.685Z,10.84
2023-04-17T21:09:09.644Z,10.91
2023-04-17T21:11:37.401Z,10.93
2023-04-17T21:14:04.665Z,10.92
2023-04-17T21:16:32.117Z,10.88
2023-04-17T21:18:59.856Z,10.85
2023-04-17T21:21:27.188Z,11.01
2023-04-17T21:23:54.423Z,11.01
2023-04-17T21:26:22.121Z,10.89
2023-04-17T21:28:49.393Z,10.90
2023-04-17T21:31:16.758Z,10.77
2023-04-17T21:33:44.437Z,10.85
2023-04-17T21:36:11.765Z,10.90
2023-04-17T21:38:39.414Z,10.86
2023-04-17T21:41:09.262Z,10.94
2023-04-17T21:43:36.574Z,10.83
2023-04-17T21:46:04.057Z,10.79
2023-04-17T21:48:31.753Z,10.97
2023-04-17T21:51:04.127Z,11.05
2023-04-17T21:53:34.644Z,10.79
2023-04-17T21:56:02.187Z,10.85
2023-04-17T21:58:29.858Z,10.99
2023-04-17T22:00:57.563Z,10.92
2023-04-17T22:03:25.356Z,10.95
2023-04-17T22:05:54.226Z,11.02
2023-04-17T22:08:21.541Z,10.82
2023-04-17T22:10:49.592Z,10.74
2023-04-17T22:13:16.915Z,10.79
2023-04-17T22:15:44.868Z,10.79
2023-04-17T22:18:12.414Z,10.92
2023-04-17T22:20:39.645Z,10.95
2023-04-17T22:23:08.169Z,10.90
2023-04-17T22:25:36.343Z,10.84
2023-04-17T22:28:03.680Z,10.87
2023-04-17T22:30:30.947Z,10.82
2023-04-17T22:32:58.971Z,10.72
2023-04-17T22:35:27.110Z,10.64
2023-04-17T22:37:54.391Z,10.79
2023-04-17T22:40:22.007Z,10.63
2023-04-17T22:42:50.834Z,10.36
2023-04-17T22:45:18.234Z,10.54
2023-04-17T22:47:45.924Z,10.64
2023-04-17T22:50:14.417Z,10.77
2023-04-17T22:52:41.779Z,10.77
2023-04-17T22:55:09.988Z,10.89
2023-04-17T22:57:37.290Z,11.04
2023-04-17T23:00:05.075Z,10.85
2023-04-17T23:02:32.803Z,10.46
2023-04-17T23:05:00.285Z,10.47
2023-04-17T23:07:27.931Z,10.63
2023-04-17T23:09:55.649Z,10.76
2023-04-17T23:12:22.920Z,10.83
2023-04-17T23:14:50.238Z,10.72
2023-04-17T23:17:18.136Z,10.77
2023-04-17T23:19:45.401Z,10.84
2023-04-17T23:22:12.714Z,10.50
2023-04-17T23:24:40.751Z,10.47
2023-04-17T23:27:08.052Z,10.44
2023-04-17T23:29:35.345Z,10.54
2023-04-17T23:32:04.638Z,10.63
2023-04-17T23:34:31.921Z,10.67
2023-04-17T23:36:59.258Z,10.68
2023-04-17T23:39:26.886Z,10.57
2023-04-17T23:41:54.997Z,10.63
2023-04-17T23:44:22.288Z,10.52
2023-04-17T23:46:50.005Z,10.56
2023-04-17T23:49:17.304Z,10.61
2023-04-17T23:51:45.015Z,10.50
2023-04-17T23:54:13.212Z,10.33
2023-04-17T23:56:43.388Z,10.18
2023-04-17T23:59:10.774Z,10.14
